sensor_id;sensor_type;location;lat;lon;timestamp;P1;durP1;ratioP1;P2;durP2;ratioP2
46607;SDS011;32330;51.936;7.184;2022-10-16T04:03:59;6.63;;;4.30;;
46607;SDS011;32330;51.936;7.184;2022-10-16T04:06:25;7.22;;;4.85;;
46607;SDS011;32330;51.936;7.184;2022-10-16T04:08:50;6.50;;;4.30;;
46607;SDS011;32330;51.936;7.184;2022-10-16T04:11:16;8.40;;;3.95;;
46607;SDS011;32330;51.936;7.184;2022-10-16T04:13:41;6.50;;;4.10;;
46607;SDS011;32330;51.936;7.184;2022-10-16T04:16:07;7.75;;;4.03;;
46607;SDS011;32330;51.936;7.184;2022-10-16T04:18:32;5.60;;;3.40;;
46607;SDS011;32330;51.936;7.184;2022-10-16T04:21:04;6.30;;;3.80;;
46607;SDS011;32330;51.936;7.184;2022-10-16T04:23:31;8.35;;;4.07;;
46607;SDS011;32330;51.936;7.184;2022-10-16T04:25:56;5.20;;;3.08;;
46607;SDS011;32330;51.936;7.184;2022-10-16T04:28:22;4.57;;;3.20;;
46607;SDS011;32330;51.936;7.184;2022-10-16T04:30:47;6.20;;;3.58;;
46607;SDS011;32330;51.936;7.184;2022-10-16T04:33:13;5.88;;;2.88;;
46607;SDS011;32330;51.936;7.184;2022-10-16T04:35:38;5.30;;;2.70;;
46607;SDS011;32330;51.936;7.184;2022-10-16T04:38:04;4.70;;;3.15;;
46607;SDS011;32330;51.936;7.184;2022-10-16T04:40:30;4.63;;;2.80;;
46607;SDS011;32330;51.936;7.184;2022-10-16T04:43:00;3.35;;;2.47;;
46607;SDS011;32330;51.936;7.184;2022-10-16T04:45:26;10.48;;;3.40;;
46607;SDS011;32330;51.936;7.184;2022-10-16T04:47:51;4.25;;;2.95;;
46607;SDS011;32330;51.936;7.184;2022-10-16T04:50:17;4.32;;;2.70;;
46607;SDS011;32330;51.936;7.184;2022-10-16T04:52:42;4.45;;;2.97;;
46607;SDS011;32330;51.936;7.184;2022-10-16T04:55:08;4.03;;;2.40;;
46607;SDS011;32330;51.936;7.184;2022-10-16T04:57:34;6.65;;;3.15;;
46607;SDS011;32330;51.936;7.184;2022-10-16T04:59:59;4.10;;;2.72;;
46607;SDS011;32330;51.936;7.184;2022-10-16T05:02:25;3.65;;;2.20;;
46607;SDS011;32330;51.936;7.184;2022-10-16T05:04:51;3.67;;;2.78;;
46607;SDS011;32330;51.936;7.184;2022-10-16T05:07:16;3.83;;;2.42;;
46607;SDS011;32330;51.936;7.184;2022-10-16T05:09:42;3.72;;;2.72;;
46607;SDS011;32330;51.936;7.184;2022-10-16T05:12:08;4.35;;;2.78;;
46607;SDS011;32330;51.936;7.184;2022-10-16T05:14:33;5.30;;;2.58;;
46607;SDS011;32330;51.936;7.184;2022-10-16T05:16:59;4.43;;;2.42;;
46607;SDS011;32330;51.936;7.184;2022-10-16T05:19:25;3.60;;;2.42;;
46607;SDS011;32330;51.936;7.184;2022-10-16T05:21:51;7.20;;;3.30;;
46607;SDS011;32330;51.936;7.184;2022-10-16T05:24:16;7.53;;;3.72;;
46607;SDS011;32330;51.936;7.184;2022-10-16T05:26:42;3.90;;;2.22;;
46607;SDS011;32330;51.936;7.184;2022-10-16T05:29:07;6.93;;;2.60;;
46607;SDS011;32330;51.936;7.184;2022-10-16T05:31:34;5.38;;;2.15;;
46607;SDS011;32330;51.936;7.184;2022-10-16T05:33:59;4.35;;;3.00;;
46607;SDS011;32330;51.936;7.184;2022-10-16T05:36:26;5.40;;;2.72;;
46607;SDS011;32330;51.936;7.184;2022-10-16T05:38:51;4.25;;;2.78;;
46607;SDS011;32330;51.936;7.184;2022-10-16T05:41:17;7.07;;;2.53;;
46607;SDS011;32330;51.936;7.184;2022-10-16T05:43:46;6.10;;;2.47;;
46607;SDS011;32330;51.936;7.184;2022-10-16T05:46:12;7.63;;;2.58;;
46607;SDS011;32330;51.936;7.184;2022-10-16T05:48:38;10.23;;;2.50;;
46607;SDS011;32330;51.936;7.184;2022-10-16T05:51:05;4.93;;;2.30;;
46607;SDS011;32330;51.936;7.184;2022-10-16T05:53:32;4.72;;;2.67;;
46607;SDS011;32330;51.936;7.184;2022-10-16T05:55:59;4.03;;;2.42;;
46607;SDS011;32330;51.936;7.184;2022-10-16T05:58:28;5.40;;;2.50;;
46607;SDS011;32330;51.936;7.184;2022-10-16T06:00:56;5.50;;;2.67;;
46607;SDS011;32330;51.936;7.184;2022-10-16T06:03:22;4.88;;;1.98;;
46607;SDS011;32330;51.936;7.184;2022-10-16T06:05:48;5.05;;;3.35;;
46607;SDS011;32330;51.936;7.184;2022-10-16T06:08:14;12.65;;;4.25;;
46607;SDS011;32330;51.936;7.184;2022-10-16T06:10:40;4.20;;;2.13;;
46607;SDS011;32330;51.936;7.184;2022-10-16T06:13:05;4.90;;;2.60;;
46607;SDS011;32330;51.936;7.184;2022-10-16T06:15:31;7.13;;;2.53;;
46607;SDS011;32330;51.936;7.184;2022-10-16T06:17:56;3.67;;;2.40;;
46607;SDS011;32330;51.936;7.184;2022-10-16T06:20:22;4.65;;;2.20;;
46607;SDS011;32330;51.936;7.184;2022-10-16T06:22:47;3.92;;;1.95;;
46607;SDS011;32330;51.936;7.184;2022-10-16T06:25:13;4.40;;;2.10;;
46607;SDS011;32330;51.936;7.184;2022-10-16T06:27:41;4.85;;;2.58;;
46607;SDS011;32330;51.936;7.184;2022-10-16T06:30:07;4.80;;;2.17;;
46607;SDS011;32330;51.936;7.184;2022-10-16T06:32:33;3.67;;;2.30;;
46607;SDS011;32330;51.936;7.184;2022-10-16T06:34:58;4.22;;;2.38;;
46607;SDS011;32330;51.936;7.184;2022-10-16T06:37:24;5.57;;;2.42;;
46607;SDS011;32330;51.936;7.184;2022-10-16T06:39:50;9.90;;;2.40;;
46607;SDS011;32330;51.936;7.184;2022-10-16T06:42:17;4.18;;;2.25;;
46607;SDS011;32330;51.936;7.184;2022-10-16T06:44:43;4.82;;;2.47;;
46607;SDS011;32330;51.936;7.184;2022-10-16T06:47:09;5.30;;;2.80;;
46607;SDS011;32330;51.936;7.184;2022-10-16T06:49:35;5.03;;;2.65;;
46607;SDS011;32330;51.936;7.184;2022-10-16T06:52:00;6.63;;;2.67;;
46607;SDS011;32330;51.936;7.184;2022-10-16T06:54:26;4.97;;;2.40;;
46607;SDS011;32330;51.936;7.184;2022-10-16T06:56:52;8.13;;;2.63;;
46607;SDS011;32330;51.936;7.184;2022-10-16T06:59:19;5.05;;;2.60;;
46607;SDS011;32330;51.936;7.184;2022-10-16T07:01:45;6.88;;;2.35;;
46607;SDS011;32330;51.936;7.184;2022-10-16T07:04:11;4.90;;;2.28;;
46607;SDS011;32330;51.936;7.184;2022-10-16T07:06:36;4.70;;;2.28;;
46607;SDS011;32330;51.936;7.184;2022-10-16T07:09:03;5.45;;;2.85;;
46607;SDS011;32330;51.936;7.184;2022-10-16T07:11:30;5.90;;;2.75;;
46607;SDS011;32330;51.936;7.184;2022-10-16T07:13:56;4.15;;;2.20;;
46607;SDS011;32330;51.936;7.184;2022-10-16T07:16:22;3.70;;;2.35;;
46607;SDS011;32330;51.936;7.184;2022-10-16T07:18:50;4.90;;;2.30;;
46607;SDS011;32330;51.936;7.184;2022-10-16T07:21:18;4.68;;;2.70;;
46607;SDS011;32330;51.936;7.184;2022-10-16T07:23:45;4.10;;;2.55;;
46607;SDS011;32330;51.936;7.184;2022-10-16T07:26:15;5.13;;;2.90;;
46607;SDS011;32330;51.936;7.184;2022-10-16T07:28:40;6.57;;;2.90;;
46607;SDS011;32330;51.936;7.184;2022-10-16T07:31:09;5.05;;;2.40;;
46607;SDS011;32330;51.936;7.184;2022-10-16T07:33:36;4.45;;;2.45;;
46607;SDS011;32330;51.936;7.184;2022-10-16T07:36:03;4.18;;;2.58;;
46607;SDS011;32330;51.936;7.184;2022-10-16T07:38:29;3.42;;;2.08;;
46607;SDS011;32330;51.936;7.184;2022-10-16T07:40:56;5.00;;;2.22;;
46607;SDS011;32330;51.936;7.184;2022-10-16T07:43:23;3.78;;;2.00;;
46607;SDS011;32330;51.936;7.184;2022-10-16T07:45:48;3.85;;;2.53;;
46607;SDS011;32330;51.936;7.184;2022-10-16T07:48:15;3.45;;;2.17;;
46607;SDS011;32330;51.936;7.184;2022-10-16T07:50:42;5.20;;;2.72;;
46607;SDS011;32330;51.936;7.184;2022-10-16T07:53:08;8.48;;;2.28;;
46607;SDS011;32330;51.936;7.184;2022-10-16T07:55:33;3.65;;;2.35;;
46607;SDS011;32330;51.936;7.184;2022-10-16T07:57:59;4.85;;;2.47;;
46607;SDS011;32330;51.936;7.184;2022-10-16T08:00:24;4.50;;;2.00;;
46607;SDS011;32330;51.936;7.184;2022-10-16T08:02:50;4.90;;;3.47;;
46607;SDS011;32330;51.936;7.184;2022-10-16T08:05:15;6.28;;;2.80;;
46607;SDS011;32330;51.936;7.184;2022-10-16T08:07:41;6.22;;;2.63;;
46607;SDS011;32330;51.936;7.184;2022-10-16T08:10:09;10.35;;;2.35;;
46607;SDS011;32330;51.936;7.184;2022-10-16T08:12:41;5.20;;;2.50;;
46607;SDS011;32330;51.936;7.184;2022-10-16T08:15:07;6.50;;;2.08;;
46607;SDS011;32330;51.936;7.184;2022-10-16T08:17:33;4.05;;;1.80;;
46607;SDS011;32330;51.936;7.184;2022-10-16T08:19:58;4.47;;;1.88;;
46607;SDS011;32330;51.936;7.184;2022-10-16T08:22:24;3.45;;;1.65;;
46607;SDS011;32330;51.936;7.184;2022-10-16T08:24:50;3.00;;;1.70;;
46607;SDS011;32330;51.936;7.184;2022-10-16T08:27:15;4.25;;;1.85;;
46607;SDS011;32330;51.936;7.184;2022-10-16T08:29:41;8.57;;;1.70;;
46607;SDS011;32330;51.936;7.184;2022-10-16T08:32:06;4.55;;;2.15;;
46607;SDS011;32330;51.936;7.184;2022-10-16T08:34:32;3.63;;;1.80;;
46607;SDS011;32330;51.936;7.184;2022-10-16T08:36:57;4.93;;;1.70;;
46607;SDS011;32330;51.936;7.184;2022-10-16T08:39:23;7.18;;;1.70;;
46607;SDS011;32330;51.936;7.184;2022-10-16T08:42:02;4.45;;;2.22;;
46607;SDS011;32330;51.936;7.184;2022-10-16T08:45:08;5.95;;;1.60;;
46607;SDS011;32330;51.936;7.184;2022-10-16T08:50:49;4.28;;;1.38;;
46607;SDS011;32330;51.936;7.184;2022-10-16T08:56:22;7.97;;;1.27;;
46607;SDS011;32330;51.936;7.184;2022-10-16T08:58:48;4.38;;;1.90;;
46607;SDS011;32330;51.936;7.184;2022-10-16T09:01:15;2.28;;;1.42;;
46607;SDS011;32330;51.936;7.184;2022-10-16T09:14:54;4.38;;;1.40;;
46607;SDS011;32330;51.936;7.184;2022-10-16T09:20:18;4.70;;;1.25;;
46607;SDS011;32330;51.936;7.184;2022-10-16T09:25:48;4.80;;;1.50;;
46607;SDS011;32330;51.936;7.184;2022-10-16T09:28:15;3.58;;;1.73;;
46607;SDS011;32330;51.936;7.184;2022-10-16T09:30:41;4.38;;;1.80;;
46607;SDS011;32330;51.936;7.184;2022-10-16T09:33:07;8.00;;;2.28;;
46607;SDS011;32330;51.936;7.184;2022-10-16T09:35:42;5.28;;;2.65;;
46607;SDS011;32330;51.936;7.184;2022-10-16T09:38:20;7.47;;;4.45;;
46607;SDS011;32330;51.936;7.184;2022-10-16T09:40:57;6.68;;;4.20;;
46607;SDS011;32330;51.936;7.184;2022-10-16T09:46:02;8.02;;;3.40;;
46607;SDS011;32330;51.936;7.184;2022-10-16T09:48:31;5.38;;;2.92;;
46607;SDS011;32330;51.936;7.184;2022-10-16T09:54:14;5.95;;;2.30;;
46607;SDS011;32330;51.936;7.184;2022-10-16T09:56:39;8.05;;;2.67;;
46607;SDS011;32330;51.936;7.184;2022-10-16T09:59:11;6.20;;;2.38;;
46607;SDS011;32330;51.936;7.184;2022-10-16T10:01:41;4.68;;;2.22;;
46607;SDS011;32330;51.936;7.184;2022-10-16T10:04:16;6.53;;;2.33;;
46607;SDS011;32330;51.936;7.184;2022-10-16T10:06:55;8.02;;;1.60;;
46607;SDS011;32330;51.936;7.184;2022-10-16T10:09:22;4.20;;;1.60;;
46607;SDS011;32330;51.936;7.184;2022-10-16T10:11:57;4.80;;;1.83;;
46607;SDS011;32330;51.936;7.184;2022-10-16T10:14:35;5.32;;;1.92;;
46607;SDS011;32330;51.936;7.184;2022-10-16T10:22:18;4.10;;;1.60;;
46607;SDS011;32330;51.936;7.184;2022-10-16T10:24:54;5.72;;;1.33;;
46607;SDS011;32330;51.936;7.184;2022-10-16T10:30:24;2.65;;;0.98;;
46607;SDS011;32330;51.936;7.184;2022-10-16T10:32:57;3.55;;;1.42;;
46607;SDS011;32330;51.936;7.184;2022-10-16T10:35:56;5.40;;;1.77;;
46607;SDS011;32330;51.936;7.184;2022-10-16T10:38:39;7.10;;;1.45;;
46607;SDS011;32330;51.936;7.184;2022-10-16T10:46:34;5.40;;;1.00;;
46607;SDS011;32330;51.936;7.184;2022-10-16T10:49:19;3.30;;;1.20;;
46607;SDS011;32330;51.936;7.184;2022-10-16T10:54:48;5.20;;;1.38;;
46607;SDS011;32330;51.936;7.184;2022-10-16T10:57:25;8.00;;;1.88;;
46607;SDS011;32330;51.936;7.184;2022-10-16T10:59:56;2.58;;;1.00;;
46607;SDS011;32330;51.936;7.184;2022-10-16T11:10:58;6.95;;;3.33;;
46607;SDS011;32330;51.936;7.184;2022-10-16T11:13:35;6.15;;;1.10;;
46607;SDS011;32330;51.936;7.184;2022-10-16T11:19:12;3.65;;;1.20;;
46607;SDS011;32330;51.936;7.184;2022-10-16T11:21:48;4.30;;;1.20;;
46607;SDS011;32330;51.936;7.184;2022-10-16T11:24:23;3.67;;;1.33;;
46607;SDS011;32330;51.936;7.184;2022-10-16T11:27:17;4.40;;;1.23;;
46607;SDS011;32330;51.936;7.184;2022-10-16T11:29:54;5.00;;;1.17;;
46607;SDS011;32330;51.936;7.184;2022-10-16T11:32:31;4.88;;;1.30;;
46607;SDS011;32330;51.936;7.184;2022-10-16T11:35:11;6.00;;;1.70;;
46607;SDS011;32330;51.936;7.184;2022-10-16T11:37:44;4.88;;;1.55;;
46607;SDS011;32330;51.936;7.184;2022-10-16T11:40:19;6.45;;;1.48;;
46607;SDS011;32330;51.936;7.184;2022-10-16T11:42:55;3.60;;;1.30;;
46607;SDS011;32330;51.936;7.184;2022-10-16T11:45:34;5.40;;;0.98;;
46607;SDS011;32330;51.936;7.184;2022-10-16T11:53:46;3.58;;;1.02;;
46607;SDS011;32330;51.936;7.184;2022-10-16T11:56:19;6.70;;;1.33;;
46607;SDS011;32330;51.936;7.184;2022-10-16T11:58:59;6.53;;;1.30;;
46607;SDS011;32330;51.936;7.184;2022-10-16T12:01:47;6.28;;;1.30;;
46607;SDS011;32330;51.936;7.184;2022-10-16T12:04:26;6.80;;;1.60;;
46607;SDS011;32330;51.936;7.184;2022-10-16T12:07:11;3.97;;;1.13;;
46607;SDS011;32330;51.936;7.184;2022-10-16T12:09:42;4.68;;;1.10;;
46607;SDS011;32330;51.936;7.184;2022-10-16T12:15:23;5.60;;;1.48;;
46607;SDS011;32330;51.936;7.184;2022-10-16T12:17:47;5.85;;;1.50;;
46607;SDS011;32330;51.936;7.184;2022-10-16T12:22:55;7.03;;;1.52;;
46607;SDS011;32330;51.936;7.184;2022-10-16T12:25:27;5.03;;;1.83;;
46607;SDS011;32330;51.936;7.184;2022-10-16T12:30:57;4.65;;;1.30;;
46607;SDS011;32330;51.936;7.184;2022-10-16T12:33:28;5.75;;;1.67;;
46607;SDS011;32330;51.936;7.184;2022-10-16T12:35:56;6.07;;;2.10;;
46607;SDS011;32330;51.936;7.184;2022-10-16T12:38:32;4.35;;;1.33;;
46607;SDS011;32330;51.936;7.184;2022-10-16T12:41:04;7.57;;;1.35;;
46607;SDS011;32330;51.936;7.184;2022-10-16T12:43:46;5.05;;;1.70;;
46607;SDS011;32330;51.936;7.184;2022-10-16T12:48:38;5.30;;;1.92;;
46607;SDS011;32330;51.936;7.184;2022-10-16T12:51:19;8.25;;;1.42;;
46607;SDS011;32330;51.936;7.184;2022-10-16T12:53:59;7.80;;;1.75;;
46607;SDS011;32330;51.936;7.184;2022-10-16T12:56:28;7.07;;;1.95;;
46607;SDS011;32330;51.936;7.184;2022-10-16T12:59:00;4.53;;;1.10;;
46607;SDS011;32330;51.936;7.184;2022-10-16T13:01:56;7.18;;;1.95;;
46607;SDS011;32330;51.936;7.184;2022-10-16T13:10:18;4.32;;;1.20;;
46607;SDS011;32330;51.936;7.184;2022-10-16T13:15:58;7.10;;;1.50;;
46607;SDS011;32330;51.936;7.184;2022-10-16T13:27:46;5.18;;;1.33;;
46607;SDS011;32330;51.936;7.184;2022-10-16T13:30:16;5.32;;;1.27;;
46607;SDS011;32330;51.936;7.184;2022-10-16T13:32:47;4.93;;;1.20;;
46607;SDS011;32330;51.936;7.184;2022-10-16T13:35:19;5.72;;;1.58;;
46607;SDS011;32330;51.936;7.184;2022-10-16T13:37:47;5.55;;;1.50;;
46607;SDS011;32330;51.936;7.184;2022-10-16T13:40:21;6.10;;;1.33;;
46607;SDS011;32330;51.936;7.184;2022-10-16T13:42:48;8.45;;;1.45;;
46607;SDS011;32330;51.936;7.184;2022-10-16T13:45:22;5.63;;;1.23;;
46607;SDS011;32330;51.936;7.184;2022-10-16T13:48:00;5.63;;;2.05;;
46607;SDS011;32330;51.936;7.184;2022-10-16T13:50:29;4.78;;;1.30;;
46607;SDS011;32330;51.936;7.184;2022-10-16T13:53:05;6.28;;;1.50;;
46607;SDS011;32330;51.936;7.184;2022-10-16T13:55:31;6.47;;;2.13;;
46607;SDS011;32330;51.936;7.184;2022-10-16T13:58:07;5.57;;;1.20;;
46607;SDS011;32330;51.936;7.184;2022-10-16T14:00:37;8.13;;;1.80;;
46607;SDS011;32330;51.936;7.184;2022-10-16T14:03:07;4.95;;;1.30;;
46607;SDS011;32330;51.936;7.184;2022-10-16T14:05:49;6.07;;;1.30;;
46607;SDS011;32330;51.936;7.184;2022-10-16T14:08:16;5.13;;;2.20;;
46607;SDS011;32330;51.936;7.184;2022-10-16T14:10:42;6.80;;;1.88;;
46607;SDS011;32330;51.936;7.184;2022-10-16T14:13:14;8.32;;;1.52;;
46607;SDS011;32330;51.936;7.184;2022-10-16T14:15:49;4.15;;;1.25;;
46607;SDS011;32330;51.936;7.184;2022-10-16T14:18:21;3.40;;;1.10;;
46607;SDS011;32330;51.936;7.184;2022-10-16T14:20:49;5.43;;;1.35;;
46607;SDS011;32330;51.936;7.184;2022-10-16T14:25:46;7.30;;;2.42;;
46607;SDS011;32330;51.936;7.184;2022-10-16T14:28:21;7.70;;;1.85;;
46607;SDS011;32330;51.936;7.184;2022-10-16T14:30:58;4.65;;;1.05;;
46607;SDS011;32330;51.936;7.184;2022-10-16T14:33:31;4.53;;;1.05;;
46607;SDS011;32330;51.936;7.184;2022-10-16T14:36:05;4.82;;;1.20;;
46607;SDS011;32330;51.936;7.184;2022-10-16T14:38:34;7.18;;;1.55;;
46607;SDS011;32330;51.936;7.184;2022-10-16T14:41:01;3.97;;;1.10;;
46607;SDS011;32330;51.936;7.184;2022-10-16T14:43:49;2.83;;;0.93;;
46607;SDS011;32330;51.936;7.184;2022-10-16T14:46:21;5.20;;;1.00;;
46607;SDS011;32330;51.936;7.184;2022-10-16T14:48:56;4.38;;;0.90;;
46607;SDS011;32330;51.936;7.184;2022-10-16T14:51:28;5.90;;;1.25;;
46607;SDS011;32330;51.936;7.184;2022-10-16T14:53:54;4.38;;;1.25;;
46607;SDS011;32330;51.936;7.184;2022-10-16T14:56:21;2.53;;;0.85;;
46607;SDS011;32330;51.936;7.184;2022-10-16T14:58:49;4.50;;;1.40;;
46607;SDS011;32330;51.936;7.184;2022-10-16T15:01:16;4.70;;;1.20;;
46607;SDS011;32330;51.936;7.184;2022-10-16T15:03:42;6.15;;;2.00;;
46607;SDS011;32330;51.936;7.184;2022-10-16T15:06:09;6.70;;;1.95;;
46607;SDS011;32330;51.936;7.184;2022-10-16T15:08:36;3.63;;;1.10;;
46607;SDS011;32330;51.936;7.184;2022-10-16T15:11:02;3.13;;;1.00;;
46607;SDS011;32330;51.936;7.184;2022-10-16T15:13:28;4.97;;;1.27;;
46607;SDS011;32330;51.936;7.184;2022-10-16T15:15:53;4.25;;;1.00;;
46607;SDS011;32330;51.936;7.184;2022-10-16T15:18:19;4.75;;;1.42;;
46607;SDS011;32330;51.936;7.184;2022-10-16T15:20:47;3.28;;;0.98;;
46607;SDS011;32330;51.936;7.184;2022-10-16T15:23:15;1.58;;;0.57;;
46607;SDS011;32330;51.936;7.184;2022-10-16T15:28:13;3.78;;;1.20;;
46607;SDS011;32330;51.936;7.184;2022-10-16T15:30:40;4.55;;;1.10;;
46607;SDS011;32330;51.936;7.184;2022-10-16T15:33:10;3.90;;;1.17;;
46607;SDS011;32330;51.936;7.184;2022-10-16T15:35:38;3.40;;;1.20;;
46607;SDS011;32330;51.936;7.184;2022-10-16T15:38:04;3.58;;;1.17;;
46607;SDS011;32330;51.936;7.184;2022-10-16T15:40:29;4.68;;;1.77;;
46607;SDS011;32330;51.936;7.184;2022-10-16T15:42:55;4.15;;;2.38;;
46607;SDS011;32330;51.936;7.184;2022-10-16T15:45:21;5.47;;;2.38;;
46607;SDS011;32330;51.936;7.184;2022-10-16T15:47:46;5.00;;;2.60;;
46607;SDS011;32330;51.936;7.184;2022-10-16T15:50:13;6.22;;;2.70;;
46607;SDS011;32330;51.936;7.184;2022-10-16T15:52:40;5.90;;;2.20;;
46607;SDS011;32330;51.936;7.184;2022-10-16T15:55:10;3.97;;;1.90;;
46607;SDS011;32330;51.936;7.184;2022-10-16T15:57:37;5.23;;;1.90;;
46607;SDS011;32330;51.936;7.184;2022-10-16T16:00:07;4.50;;;2.20;;
46607;SDS011;32330;51.936;7.184;2022-10-16T16:02:35;5.55;;;2.10;;
46607;SDS011;32330;51.936;7.184;2022-10-16T16:05:01;4.35;;;1.52;;
46607;SDS011;32330;51.936;7.184;2022-10-16T16:07:26;5.50;;;1.80;;
46607;SDS011;32330;51.936;7.184;2022-10-16T16:09:52;5.18;;;1.80;;
46607;SDS011;32330;51.936;7.184;2022-10-16T16:12:18;5.88;;;2.28;;
46607;SDS011;32330;51.936;7.184;2022-10-16T16:14:43;4.03;;;1.73;;
46607;SDS011;32330;51.936;7.184;2022-10-16T16:17:11;4.40;;;2.25;;
46607;SDS011;32330;51.936;7.184;2022-10-16T16:19:36;4.57;;;2.13;;
46607;SDS011;32330;51.936;7.184;2022-10-16T16:22:02;7.28;;;2.97;;
46607;SDS011;32330;51.936;7.184;2022-10-16T16:24:27;5.70;;;3.08;;
46607;SDS011;32330;51.936;7.184;2022-10-16T16:26:53;5.47;;;2.40;;
46607;SDS011;32330;51.936;7.184;2022-10-16T16:29:19;7.93;;;2.60;;
46607;SDS011;32330;51.936;7.184;2022-10-16T16:31:44;8.60;;;2.58;;
46607;SDS011;32330;51.936;7.184;2022-10-16T16:34:12;6.93;;;1.80;;
46607;SDS011;32330;51.936;7.184;2022-10-16T16:36:38;4.57;;;1.90;;
46607;SDS011;32330;51.936;7.184;2022-10-16T16:39:04;4.88;;;2.15;;
46607;SDS011;32330;51.936;7.184;2022-10-16T16:41:31;4.80;;;1.75;;
46607;SDS011;32330;51.936;7.184;2022-10-16T16:44:02;3.72;;;1.88;;
46607;SDS011;32330;51.936;7.184;2022-10-16T16:46:30;7.32;;;2.92;;
46607;SDS011;32330;51.936;7.184;2022-10-16T16:48:57;5.50;;;2.90;;
46607;SDS011;32330;51.936;7.184;2022-10-16T16:51:23;6.03;;;4.28;;
46607;SDS011;32330;51.936;7.184;2022-10-16T16:53:50;5.97;;;3.90;;
46607;SDS011;32330;51.936;7.184;2022-10-16T16:56:17;7.55;;;3.70;;
46607;SDS011;32330;51.936;7.184;2022-10-16T16:58:50;12.20;;;6.25;;
46607;SDS011;32330;51.936;7.184;2022-10-16T17:01:17;9.52;;;6.03;;
46607;SDS011;32330;51.936;7.184;2022-10-16T17:03:43;4.72;;;3.00;;
46607;SDS011;32330;51.936;7.184;2022-10-16T17:06:10;5.95;;;1.98;;
46607;SDS011;32330;51.936;7.184;2022-10-16T17:08:37;5.03;;;1.60;;
46607;SDS011;32330;51.936;7.184;2022-10-16T17:11:03;11.07;;;6.82;;
46607;SDS011;32330;51.936;7.184;2022-10-16T17:13:31;12.40;;;8.30;;
46607;SDS011;32330;51.936;7.184;2022-10-16T17:16:02;8.98;;;4.32;;
46607;SDS011;32330;51.936;7.184;2022-10-16T17:18:30;10.13;;;4.55;;
46607;SDS011;32330;51.936;7.184;2022-10-16T17:20:58;5.72;;;1.70;;
46607;SDS011;32330;51.936;7.184;2022-10-16T17:23:25;6.25;;;1.65;;
46607;SDS011;32330;51.936;7.184;2022-10-16T17:25:50;4.05;;;1.75;;
46607;SDS011;32330;51.936;7.184;2022-10-16T17:28:16;3.78;;;1.80;;
46607;SDS011;32330;51.936;7.184;2022-10-16T17:30:42;4.32;;;2.40;;
46607;SDS011;32330;51.936;7.184;2022-10-16T17:33:08;14.13;;;9.77;;
46607;SDS011;32330;51.936;7.184;2022-10-16T17:35:35;18.38;;;11.48;;
46607;SDS011;32330;51.936;7.184;2022-10-16T17:38:02;20.90;;;15.75;;
46607;SDS011;32330;51.936;7.184;2022-10-16T17:40:28;10.25;;;4.60;;
46607;SDS011;32330;51.936;7.184;2022-10-16T17:42:53;5.30;;;3.00;;
46607;SDS011;32330;51.936;7.184;2022-10-16T17:45:19;4.72;;;2.17;;
46607;SDS011;32330;51.936;7.184;2022-10-16T17:47:44;5.63;;;1.60;;
46607;SDS011;32330;51.936;7.184;2022-10-16T17:50:10;5.28;;;1.63;;
46607;SDS011;32330;51.936;7.184;2022-10-16T17:52:36;4.97;;;1.35;;
46607;SDS011;32330;51.936;7.184;2022-10-16T17:55:01;7.03;;;1.58;;
46607;SDS011;32330;51.936;7.184;2022-10-16T17:57:27;6.30;;;2.20;;
46607;SDS011;32330;51.936;7.184;2022-10-16T17:59:55;4.55;;;2.30;;
46607;SDS011;32330;51.936;7.184;2022-10-16T18:02:21;7.25;;;3.60;;
46607;SDS011;32330;51.936;7.184;2022-10-16T18:04:49;6.05;;;2.80;;
46607;SDS011;32330;51.936;7.184;2022-10-16T18:07:14;7.15;;;2.15;;
46607;SDS011;32330;51.936;7.184;2022-10-16T18:09:40;6.88;;;1.90;;
46607;SDS011;32330;51.936;7.184;2022-10-16T18:12:06;6.38;;;1.95;;
46607;SDS011;32330;51.936;7.184;2022-10-16T18:14:32;4.15;;;1.70;;
46607;SDS011;32330;51.936;7.184;2022-10-16T18:16:58;4.70;;;2.03;;
46607;SDS011;32330;51.936;7.184;2022-10-16T18:19:24;7.00;;;1.85;;
46607;SDS011;32330;51.936;7.184;2022-10-16T18:21:51;4.85;;;2.45;;
46607;SDS011;32330;51.936;7.184;2022-10-16T18:24:20;4.50;;;2.42;;
46607;SDS011;32330;51.936;7.184;2022-10-16T18:26:48;6.60;;;2.30;;
46607;SDS011;32330;51.936;7.184;2022-10-16T18:29:15;6.28;;;2.20;;
46607;SDS011;32330;51.936;7.184;2022-10-16T18:31:40;6.50;;;3.25;;
46607;SDS011;32330;51.936;7.184;2022-10-16T18:34:07;6.82;;;2.58;;
46607;SDS011;32330;51.936;7.184;2022-10-16T18:36:33;4.45;;;2.50;;
46607;SDS011;32330;51.936;7.184;2022-10-16T18:39:00;6.15;;;2.55;;
46607;SDS011;32330;51.936;7.184;2022-10-16T18:41:28;3.17;;;1.80;;
46607;SDS011;32330;51.936;7.184;2022-10-16T18:43:56;7.43;;;2.45;;
46607;SDS011;32330;51.936;7.184;2022-10-16T18:46:22;4.75;;;2.00;;
46607;SDS011;32330;51.936;7.184;2022-10-16T18:48:48;6.80;;;2.53;;
46607;SDS011;32330;51.936;7.184;2022-10-16T18:51:20;5.72;;;2.30;;
46607;SDS011;32330;51.936;7.184;2022-10-16T18:53:51;7.85;;;2.38;;
46607;SDS011;32330;51.936;7.184;2022-10-16T18:56:19;5.35;;;2.22;;
46607;SDS011;32330;51.936;7.184;2022-10-16T18:58:47;5.35;;;2.42;;
46607;SDS011;32330;51.936;7.184;2022-10-16T19:01:15;4.60;;;2.40;;
46607;SDS011;32330;51.936;7.184;2022-10-16T19:03:46;7.10;;;2.92;;
46607;SDS011;32330;51.936;7.184;2022-10-16T19:06:13;6.03;;;2.90;;
46607;SDS011;32330;51.936;7.184;2022-10-16T19:08:41;7.05;;;2.97;;
46607;SDS011;32330;51.936;7.184;2022-10-16T19:11:13;6.15;;;2.83;;
46607;SDS011;32330;51.936;7.184;2022-10-16T19:13:41;5.85;;;3.85;;
46607;SDS011;32330;51.936;7.184;2022-10-16T19:16:09;6.40;;;4.40;;
46607;SDS011;32330;51.936;7.184;2022-10-16T19:18:40;6.75;;;3.88;;
46607;SDS011;32330;51.936;7.184;2022-10-16T19:21:07;11.23;;;5.97;;
46607;SDS011;32330;51.936;7.184;2022-10-16T19:23:34;9.10;;;5.68;;
46607;SDS011;32330;51.936;7.184;2022-10-16T19:26:00;6.47;;;4.18;;
46607;SDS011;32330;51.936;7.184;2022-10-16T19:28:36;6.20;;;3.65;;
46607;SDS011;32330;51.936;7.184;2022-10-16T19:31:03;6.82;;;3.65;;
46607;SDS011;32330;51.936;7.184;2022-10-16T19:33:32;4.45;;;3.60;;
46607;SDS011;32330;51.936;7.184;2022-10-16T19:36:08;8.55;;;4.97;;
46607;SDS011;32330;51.936;7.184;2022-10-16T19:38:36;21.90;;;14.55;;
46607;SDS011;32330;51.936;7.184;2022-10-16T19:43:31;16.95;;;11.52;;
46607;SDS011;32330;51.936;7.184;2022-10-16T19:45:56;11.95;;;8.05;;
46607;SDS011;32330;51.936;7.184;2022-10-16T19:48:34;14.40;;;8.23;;
46607;SDS011;32330;51.936;7.184;2022-10-16T19:50:59;9.48;;;5.13;;
46607;SDS011;32330;51.936;7.184;2022-10-16T19:53:26;13.80;;;9.85;;
46607;SDS011;32330;51.936;7.184;2022-10-16T19:55:55;13.50;;;10.27;;
46607;SDS011;32330;51.936;7.184;2022-10-16T19:58:21;16.48;;;8.40;;
46607;SDS011;32330;51.936;7.184;2022-10-16T20:00:46;12.60;;;8.18;;
46607;SDS011;32330;51.936;7.184;2022-10-16T20:03:12;9.15;;;5.60;;
46607;SDS011;32330;51.936;7.184;2022-10-16T20:05:38;11.25;;;8.95;;
46607;SDS011;32330;51.936;7.184;2022-10-16T20:08:04;6.28;;;5.25;;
46607;SDS011;32330;51.936;7.184;2022-10-16T20:10:29;7.10;;;4.47;;
46607;SDS011;32330;51.936;7.184;2022-10-16T20:12:55;5.90;;;4.05;;
46607;SDS011;32330;51.936;7.184;2022-10-16T20:15:21;9.52;;;5.95;;
46607;SDS011;32330;51.936;7.184;2022-10-16T20:17:46;13.48;;;8.27;;
46607;SDS011;32330;51.936;7.184;2022-10-16T20:20:12;10.07;;;6.45;;
46607;SDS011;32330;51.936;7.184;2022-10-16T20:22:38;10.32;;;5.78;;
46607;SDS011;32330;51.936;7.184;2022-10-16T20:25:03;11.65;;;6.68;;
46607;SDS011;32330;51.936;7.184;2022-10-16T20:33:27;5.45;;;3.85;;
46607;SDS011;32330;51.936;7.184;2022-10-16T20:35:52;7.32;;;3.88;;
46607;SDS011;32330;51.936;7.184;2022-10-16T20:38:18;5.82;;;3.45;;
46607;SDS011;32330;51.936;7.184;2022-10-16T20:40:44;6.97;;;3.97;;
46607;SDS011;32330;51.936;7.184;2022-10-16T20:43:11;6.80;;;4.03;;